Skunkhollow, Arkansas
Current Conditions -  °F | °C
As of 7:58 AM on Tuesday 21 Oct 2014 (Local Time) from KLRF Reporting Station
Clear Clear  
Wind Chill: 50°   Ceiling: Unl
Heat Index: 50°   Visibility: 10mi
Dew Point: 49°   Wind: 1mph
Humidity: 98%   Direction: 270°W
Pressure: 30.1"   Gusts: NA
Location:  35.0822°N, 92.366°W
Report Text: KLRF 211258Z 27001KT 10SM CLR 10/10 A3010 RMK AO2A VIS 1/2 RWY07 SLP195 T00990096
Loading
Personal Weather Stations






























Interactive Weather Map
Tropical Storm Tracking
New forecast layout! Learn more

10-Day Weather Forecast

Advertisements
Track Severe Weather on mobile